sensor_id;sensor_type;location;lat;lon;timestamp;P1;durP1;ratioP1;P2;durP2;ratioP2
36061;SDS011;22123;52.412;20.970;2023-10-31T00:01:04;4.97;;;2.15;;
36061;SDS011;22123;52.412;20.970;2023-10-31T00:03:30;5.28;;;2.67;;
36061;SDS011;22123;52.412;20.970;2023-10-31T00:05:57;6.25;;;2.05;;
36061;SDS011;22123;52.412;20.970;2023-10-31T00:08:23;3.88;;;2.55;;
36061;SDS011;22123;52.412;20.970;2023-10-31T00:10:48;2.72;;;2.53;;
36061;SDS011;22123;52.412;20.970;2023-10-31T00:13:14;1.45;;;1.35;;
36061;SDS011;22123;52.412;20.970;2023-10-31T00:15:40;2.15;;;1.95;;
36061;SDS011;22123;52.412;20.970;2023-10-31T00:18:06;2.47;;;2.28;;
36061;SDS011;22123;52.412;20.970;2023-10-31T00:20:32;2.97;;;1.90;;
36061;SDS011;22123;52.412;20.970;2023-10-31T00:22:58;4.65;;;1.40;;
36061;SDS011;22123;52.412;20.970;2023-10-31T00:25:24;3.95;;;1.42;;
36061;SDS011;22123;52.412;20.970;2023-10-31T00:27:50;1.52;;;1.40;;
36061;SDS011;22123;52.412;20.970;2023-10-31T00:30:16;4.38;;;1.50;;
36061;SDS011;22123;52.412;20.970;2023-10-31T00:32:42;4.95;;;1.88;;
36061;SDS011;22123;52.412;20.970;2023-10-31T00:35:08;5.30;;;2.72;;
36061;SDS011;22123;52.412;20.970;2023-10-31T00:37:34;4.18;;;2.35;;
36061;SDS011;22123;52.412;20.970;2023-10-31T00:40:00;1.80;;;1.65;;
36061;SDS011;22123;52.412;20.970;2023-10-31T00:42:25;3.28;;;1.83;;
36061;SDS011;22123;52.412;20.970;2023-10-31T00:44:51;2.38;;;2.17;;
36061;SDS011;22123;52.412;20.970;2023-10-31T00:47:17;2.90;;;2.33;;
36061;SDS011;22123;52.412;20.970;2023-10-31T00:49:43;10.63;;;2.85;;
36061;SDS011;22123;52.412;20.970;2023-10-31T00:52:09;8.90;;;2.30;;
36061;SDS011;22123;52.412;20.970;2023-10-31T00:54:35;1.83;;;1.73;;
36061;SDS011;22123;52.412;20.970;2023-10-31T00:57:01;2.90;;;2.45;;
36061;SDS011;22123;52.412;20.970;2023-10-31T00:59:26;3.88;;;1.73;;
36061;SDS011;22123;52.412;20.970;2023-10-31T01:01:52;2.45;;;1.58;;
36061;SDS011;22123;52.412;20.970;2023-10-31T01:04:18;2.78;;;1.77;;
36061;SDS011;22123;52.412;20.970;2023-10-31T01:06:44;3.47;;;1.73;;
36061;SDS011;22123;52.412;20.970;2023-10-31T01:09:10;3.08;;;2.13;;
36061;SDS011;22123;52.412;20.970;2023-10-31T01:11:36;3.95;;;1.83;;
36061;SDS011;22123;52.412;20.970;2023-10-31T01:14:02;4.25;;;2.13;;
36061;SDS011;22123;52.412;20.970;2023-10-31T01:16:28;5.38;;;1.40;;
36061;SDS011;22123;52.412;20.970;2023-10-31T01:18:54;2.88;;;1.77;;
36061;SDS011;22123;52.412;20.970;2023-10-31T01:21:20;3.35;;;1.75;;
36061;SDS011;22123;52.412;20.970;2023-10-31T01:23:46;7.38;;;1.83;;
36061;SDS011;22123;52.412;20.970;2023-10-31T01:26:12;1.48;;;1.38;;
36061;SDS011;22123;52.412;20.970;2023-10-31T01:28:38;7.75;;;2.72;;
36061;SDS011;22123;52.412;20.970;2023-10-31T01:31:03;1.75;;;1.63;;
36061;SDS011;22123;52.412;20.970;2023-10-31T01:33:29;9.30;;;1.60;;
36061;SDS011;22123;52.412;20.970;2023-10-31T01:35:55;6.25;;;2.10;;
36061;SDS011;22123;52.412;20.970;2023-10-31T01:38:21;3.17;;;2.15;;
36061;SDS011;22123;52.412;20.970;2023-10-31T01:40:50;6.75;;;1.67;;
36061;SDS011;22123;52.412;20.970;2023-10-31T01:43:35;0.88;;;0.85;;
36061;SDS011;22123;52.412;20.970;2023-10-31T01:46:02;2.10;;;1.88;;
36061;SDS011;22123;52.412;20.970;2023-10-31T01:48:29;1.60;;;1.50;;
36061;SDS011;22123;52.412;20.970;2023-10-31T01:50:58;1.63;;;1.50;;
36061;SDS011;22123;52.412;20.970;2023-10-31T01:53:25;3.05;;;1.02;;
36061;SDS011;22123;52.412;20.970;2023-10-31T01:55:53;3.60;;;1.65;;
36061;SDS011;22123;52.412;20.970;2023-10-31T01:58:21;2.22;;;1.63;;
36061;SDS011;22123;52.412;20.970;2023-10-31T02:00:51;3.38;;;2.45;;
36061;SDS011;22123;52.412;20.970;2023-10-31T02:03:17;3.88;;;2.45;;
36061;SDS011;22123;52.412;20.970;2023-10-31T02:05:43;4.18;;;2.17;;
36061;SDS011;22123;52.412;20.970;2023-10-31T02:08:09;1.05;;;0.70;;
36061;SDS011;22123;52.412;20.970;2023-10-31T02:10:35;2.35;;;2.10;;
36061;SDS011;22123;52.412;20.970;2023-10-31T02:13:14;3.58;;;2.28;;
36061;SDS011;22123;52.412;20.970;2023-10-31T02:15:41;2.83;;;2.03;;
36061;SDS011;22123;52.412;20.970;2023-10-31T02:18:07;4.22;;;1.73;;
36061;SDS011;22123;52.412;20.970;2023-10-31T02:22:59;2.15;;;1.27;;
36061;SDS011;22123;52.412;20.970;2023-10-31T02:25:25;2.75;;;2.00;;
36061;SDS011;22123;52.412;20.970;2023-10-31T02:27:51;3.63;;;2.38;;
36061;SDS011;22123;52.412;20.970;2023-10-31T02:30:17;3.15;;;1.92;;
36061;SDS011;22123;52.412;20.970;2023-10-31T02:32:43;0.85;;;0.85;;
36061;SDS011;22123;52.412;20.970;2023-10-31T02:35:09;1.02;;;0.93;;
36061;SDS011;22123;52.412;20.970;2023-10-31T02:37:36;1.33;;;1.20;;
36061;SDS011;22123;52.412;20.970;2023-10-31T02:40:02;1.90;;;1.08;;
36061;SDS011;22123;52.412;20.970;2023-10-31T02:44:54;3.90;;;1.10;;
36061;SDS011;22123;52.412;20.970;2023-10-31T02:47:20;2.08;;;1.25;;
36061;SDS011;22123;52.412;20.970;2023-10-31T02:49:46;3.75;;;1.10;;
36061;SDS011;22123;52.412;20.970;2023-10-31T02:52:12;1.85;;;1.45;;
36061;SDS011;22123;52.412;20.970;2023-10-31T02:54:37;1.50;;;1.40;;
36061;SDS011;22123;52.412;20.970;2023-10-31T02:57:03;0.95;;;0.95;;
36061;SDS011;22123;52.412;20.970;2023-10-31T02:59:29;4.03;;;1.35;;
36061;SDS011;22123;52.412;20.970;2023-10-31T03:01:56;4.53;;;1.08;;
36061;SDS011;22123;52.412;20.970;2023-10-31T03:04:23;2.55;;;1.52;;
36061;SDS011;22123;52.412;20.970;2023-10-31T03:06:49;6.70;;;1.55;;
36061;SDS011;22123;52.412;20.970;2023-10-31T03:09:15;2.35;;;1.30;;
36061;SDS011;22123;52.412;20.970;2023-10-31T03:11:41;2.67;;;0.90;;
36061;SDS011;22123;52.412;20.970;2023-10-31T03:14:07;1.30;;;1.23;;
36061;SDS011;22123;52.412;20.970;2023-10-31T03:16:33;0.82;;;0.82;;
36061;SDS011;22123;52.412;20.970;2023-10-31T03:18:59;2.15;;;1.50;;
36061;SDS011;22123;52.412;20.970;2023-10-31T03:21:25;3.22;;;1.58;;
36061;SDS011;22123;52.412;20.970;2023-10-31T03:23:51;1.27;;;0.88;;
36061;SDS011;22123;52.412;20.970;2023-10-31T03:28:43;0.60;;;0.60;;
36061;SDS011;22123;52.412;20.970;2023-10-31T03:31:09;2.03;;;1.45;;
36061;SDS011;22123;52.412;20.970;2023-10-31T03:33:36;1.50;;;0.70;;
36061;SDS011;22123;52.412;20.970;2023-10-31T03:36:02;2.42;;;1.95;;
36061;SDS011;22123;52.412;20.970;2023-10-31T03:38:28;1.13;;;0.98;;
36061;SDS011;22123;52.412;20.970;2023-10-31T03:40:54;1.17;;;0.90;;
36061;SDS011;22123;52.412;20.970;2023-10-31T03:43:20;1.60;;;1.02;;
36061;SDS011;22123;52.412;20.970;2023-10-31T03:45:46;1.35;;;1.13;;
36061;SDS011;22123;52.412;20.970;2023-10-31T03:48:12;1.38;;;1.17;;
36061;SDS011;22123;52.412;20.970;2023-10-31T03:50:38;1.58;;;1.23;;
36061;SDS011;22123;52.412;20.970;2023-10-31T03:53:04;0.60;;;0.60;;
36061;SDS011;22123;52.412;20.970;2023-10-31T03:55:30;1.10;;;0.95;;
36061;SDS011;22123;52.412;20.970;2023-10-31T03:57:56;1.52;;;1.05;;
36061;SDS011;22123;52.412;20.970;2023-10-31T04:00:22;1.10;;;0.98;;
36061;SDS011;22123;52.412;20.970;2023-10-31T04:02:48;1.70;;;1.30;;
36061;SDS011;22123;52.412;20.970;2023-10-31T04:05:14;0.73;;;0.73;;
36061;SDS011;22123;52.412;20.970;2023-10-31T04:07:40;0.50;;;0.50;;
36061;SDS011;22123;52.412;20.970;2023-10-31T04:10:06;1.90;;;0.90;;
36061;SDS011;22123;52.412;20.970;2023-10-31T04:12:33;1.15;;;1.08;;
36061;SDS011;22123;52.412;20.970;2023-10-31T04:14:59;1.45;;;1.20;;
36061;SDS011;22123;52.412;20.970;2023-10-31T04:17:25;1.90;;;0.80;;
36061;SDS011;22123;52.412;20.970;2023-10-31T04:19:51;2.33;;;1.08;;
36061;SDS011;22123;52.412;20.970;2023-10-31T04:22:16;2.10;;;0.95;;
36061;SDS011;22123;52.412;20.970;2023-10-31T04:24:42;2.05;;;0.60;;
36061;SDS011;22123;52.412;20.970;2023-10-31T04:27:08;0.70;;;0.68;;
36061;SDS011;22123;52.412;20.970;2023-10-31T04:29:34;2.28;;;1.17;;
36061;SDS011;22123;52.412;20.970;2023-10-31T04:32:00;1.50;;;0.45;;
36061;SDS011;22123;52.412;20.970;2023-10-31T04:34:26;4.55;;;0.63;;
36061;SDS011;22123;52.412;20.970;2023-10-31T04:36:52;0.70;;;0.70;;
36061;SDS011;22123;52.412;20.970;2023-10-31T04:39:18;5.43;;;1.20;;
36061;SDS011;22123;52.412;20.970;2023-10-31T04:41:44;1.05;;;0.60;;
36061;SDS011;22123;52.412;20.970;2023-10-31T04:44:09;0.75;;;0.63;;
36061;SDS011;22123;52.412;20.970;2023-10-31T04:46:35;0.98;;;0.40;;
36061;SDS011;22123;52.412;20.970;2023-10-31T04:49:01;2.97;;;0.70;;
36061;SDS011;22123;52.412;20.970;2023-10-31T04:51:27;0.65;;;0.65;;
36061;SDS011;22123;52.412;20.970;2023-10-31T04:53:58;0.95;;;0.85;;
36061;SDS011;22123;52.412;20.970;2023-10-31T04:56:27;1.88;;;0.65;;
36061;SDS011;22123;52.412;20.970;2023-10-31T04:58:53;1.83;;;1.08;;
36061;SDS011;22123;52.412;20.970;2023-10-31T05:01:19;5.28;;;0.80;;
36061;SDS011;22123;52.412;20.970;2023-10-31T05:03:45;1.95;;;1.02;;
36061;SDS011;22123;52.412;20.970;2023-10-31T05:06:11;2.55;;;0.63;;
36061;SDS011;22123;52.412;20.970;2023-10-31T05:08:37;2.38;;;1.10;;
36061;SDS011;22123;52.412;20.970;2023-10-31T05:11:03;3.13;;;0.88;;
36061;SDS011;22123;52.412;20.970;2023-10-31T05:15:55;0.95;;;0.70;;
36061;SDS011;22123;52.412;20.970;2023-10-31T05:18:21;0.55;;;0.52;;
36061;SDS011;22123;52.412;20.970;2023-10-31T05:20:46;1.83;;;0.77;;
36061;SDS011;22123;52.412;20.970;2023-10-31T05:23:13;1.13;;;0.60;;
36061;SDS011;22123;52.412;20.970;2023-10-31T05:25:39;1.27;;;0.60;;
36061;SDS011;22123;52.412;20.970;2023-10-31T05:28:05;2.05;;;0.60;;
36061;SDS011;22123;52.412;20.970;2023-10-31T05:30:30;0.80;;;0.80;;
36061;SDS011;22123;52.412;20.970;2023-10-31T05:32:56;1.58;;;0.90;;
36061;SDS011;22123;52.412;20.970;2023-10-31T05:35:22;3.10;;;0.47;;
36061;SDS011;22123;52.412;20.970;2023-10-31T05:37:48;1.33;;;0.75;;
36061;SDS011;22123;52.412;20.970;2023-10-31T05:40:14;0.75;;;0.75;;
36061;SDS011;22123;52.412;20.970;2023-10-31T05:42:40;1.67;;;0.40;;
36061;SDS011;22123;52.412;20.970;2023-10-31T05:45:06;2.40;;;0.95;;
36061;SDS011;22123;52.412;20.970;2023-10-31T05:47:33;1.10;;;0.88;;
36061;SDS011;22123;52.412;20.970;2023-10-31T05:49:58;1.77;;;1.10;;
36061;SDS011;22123;52.412;20.970;2023-10-31T05:52:28;0.75;;;0.75;;
36061;SDS011;22123;52.412;20.970;2023-10-31T05:54:54;1.67;;;1.08;;
36061;SDS011;22123;52.412;20.970;2023-10-31T05:57:20;0.60;;;0.45;;
36061;SDS011;22123;52.412;20.970;2023-10-31T05:59:46;1.20;;;0.40;;
36061;SDS011;22123;52.412;20.970;2023-10-31T06:02:13;0.40;;;0.40;;
36061;SDS011;22123;52.412;20.970;2023-10-31T06:04:39;1.95;;;0.60;;
36061;SDS011;22123;52.412;20.970;2023-10-31T06:07:05;1.00;;;0.52;;
36061;SDS011;22123;52.412;20.970;2023-10-31T06:09:31;0.63;;;0.63;;
36061;SDS011;22123;52.412;20.970;2023-10-31T06:11:57;0.93;;;0.50;;
36061;SDS011;22123;52.412;20.970;2023-10-31T06:14:23;0.82;;;0.80;;
36061;SDS011;22123;52.412;20.970;2023-10-31T06:16:49;1.65;;;0.73;;
36061;SDS011;22123;52.412;20.970;2023-10-31T06:19:15;0.93;;;0.63;;
36061;SDS011;22123;52.412;20.970;2023-10-31T06:21:41;0.65;;;0.65;;
36061;SDS011;22123;52.412;20.970;2023-10-31T06:24:07;1.17;;;0.68;;
36061;SDS011;22123;52.412;20.970;2023-10-31T06:28:59;0.63;;;0.52;;
36061;SDS011;22123;52.412;20.970;2023-10-31T06:31:30;0.60;;;0.40;;
36061;SDS011;22123;52.412;20.970;2023-10-31T06:33:56;3.30;;;0.80;;
36061;SDS011;22123;52.412;20.970;2023-10-31T06:36:21;2.60;;;0.63;;
36061;SDS011;22123;52.412;20.970;2023-10-31T06:38:47;0.75;;;0.40;;
36061;SDS011;22123;52.412;20.970;2023-10-31T06:41:13;0.85;;;0.63;;
36061;SDS011;22123;52.412;20.970;2023-10-31T06:46:05;0.77;;;0.57;;
36061;SDS011;22123;52.412;20.970;2023-10-31T06:48:31;0.40;;;0.30;;
36061;SDS011;22123;52.412;20.970;2023-10-31T06:50:57;0.98;;;0.70;;
36061;SDS011;22123;52.412;20.970;2023-10-31T06:53:23;0.75;;;0.75;;
36061;SDS011;22123;52.412;20.970;2023-10-31T06:55:49;1.20;;;0.40;;
36061;SDS011;22123;52.412;20.970;2023-10-31T06:58:14;1.77;;;0.65;;
36061;SDS011;22123;52.412;20.970;2023-10-31T07:00:40;0.85;;;0.55;;
36061;SDS011;22123;52.412;20.970;2023-10-31T07:03:06;1.23;;;0.60;;
36061;SDS011;22123;52.412;20.970;2023-10-31T07:05:32;1.02;;;0.90;;
36061;SDS011;22123;52.412;20.970;2023-10-31T07:07:58;0.68;;;0.50;;
36061;SDS011;22123;52.412;20.970;2023-10-31T07:10:24;0.60;;;0.60;;
36061;SDS011;22123;52.412;20.970;2023-10-31T07:12:50;1.80;;;0.82;;
36061;SDS011;22123;52.412;20.970;2023-10-31T07:15:16;1.23;;;1.13;;
36061;SDS011;22123;52.412;20.970;2023-10-31T07:17:42;2.58;;;0.60;;
36061;SDS011;22123;52.412;20.970;2023-10-31T07:20:08;1.25;;;0.80;;
36061;SDS011;22123;52.412;20.970;2023-10-31T07:22:34;0.40;;;0.22;;
36061;SDS011;22123;52.412;20.970;2023-10-31T07:24:59;1.45;;;1.08;;
36061;SDS011;22123;52.412;20.970;2023-10-31T07:27:25;2.30;;;1.25;;
36061;SDS011;22123;52.412;20.970;2023-10-31T07:29:51;1.42;;;1.08;;
36061;SDS011;22123;52.412;20.970;2023-10-31T07:32:17;2.03;;;0.90;;
36061;SDS011;22123;52.412;20.970;2023-10-31T07:34:43;1.42;;;0.60;;
36061;SDS011;22123;52.412;20.970;2023-10-31T07:37:09;0.60;;;0.60;;
36061;SDS011;22123;52.412;20.970;2023-10-31T07:39:35;2.70;;;1.60;;
36061;SDS011;22123;52.412;20.970;2023-10-31T07:42:01;1.25;;;0.88;;
36061;SDS011;22123;52.412;20.970;2023-10-31T07:44:26;1.55;;;0.60;;
36061;SDS011;22123;52.412;20.970;2023-10-31T07:46:52;1.88;;;0.52;;
36061;SDS011;22123;52.412;20.970;2023-10-31T07:49:18;0.63;;;0.50;;
36061;SDS011;22123;52.412;20.970;2023-10-31T07:51:44;0.90;;;0.85;;
36061;SDS011;22123;52.412;20.970;2023-10-31T07:54:10;1.88;;;1.08;;
36061;SDS011;22123;52.412;20.970;2023-10-31T07:56:36;1.90;;;0.63;;
36061;SDS011;22123;52.412;20.970;2023-10-31T07:59:02;0.80;;;0.60;;
36061;SDS011;22123;52.412;20.970;2023-10-31T08:01:28;0.45;;;0.38;;
36061;SDS011;22123;52.412;20.970;2023-10-31T08:03:53;0.73;;;0.73;;
36061;SDS011;22123;52.412;20.970;2023-10-31T08:06:19;0.40;;;0.40;;
36061;SDS011;22123;52.412;20.970;2023-10-31T08:08:45;0.88;;;0.77;;
36061;SDS011;22123;52.412;20.970;2023-10-31T08:11:11;1.63;;;0.90;;
36061;SDS011;22123;52.412;20.970;2023-10-31T08:13:37;0.52;;;0.30;;
36061;SDS011;22123;52.412;20.970;2023-10-31T08:16:04;1.40;;;0.88;;
36061;SDS011;22123;52.412;20.970;2023-10-31T08:18:31;1.27;;;0.70;;
36061;SDS011;22123;52.412;20.970;2023-10-31T08:20:57;1.98;;;1.00;;
36061;SDS011;22123;52.412;20.970;2023-10-31T08:23:23;2.22;;;0.98;;
36061;SDS011;22123;52.412;20.970;2023-10-31T08:25:49;1.55;;;1.13;;
36061;SDS011;22123;52.412;20.970;2023-10-31T08:28:14;1.40;;;0.98;;
36061;SDS011;22123;52.412;20.970;2023-10-31T08:30:40;1.75;;;0.82;;
36061;SDS011;22123;52.412;20.970;2023-10-31T08:33:06;2.45;;;0.93;;
36061;SDS011;22123;52.412;20.970;2023-10-31T08:35:32;0.63;;;0.63;;
36061;SDS011;22123;52.412;20.970;2023-10-31T08:37:58;2.10;;;0.52;;
36061;SDS011;22123;52.412;20.970;2023-10-31T08:40:24;4.00;;;0.60;;
36061;SDS011;22123;52.412;20.970;2023-10-31T08:42:50;1.27;;;1.17;;
36061;SDS011;22123;52.412;20.970;2023-10-31T08:45:16;1.08;;;0.55;;
36061;SDS011;22123;52.412;20.970;2023-10-31T08:47:42;1.15;;;0.90;;
36061;SDS011;22123;52.412;20.970;2023-10-31T08:50:08;3.92;;;1.10;;
36061;SDS011;22123;52.412;20.970;2023-10-31T08:52:34;2.47;;;1.30;;
36061;SDS011;22123;52.412;20.970;2023-10-31T08:57:26;1.27;;;1.17;;
36061;SDS011;22123;52.412;20.970;2023-10-31T08:59:52;0.25;;;0.25;;
36061;SDS011;22123;52.412;20.970;2023-10-31T09:02:17;1.17;;;0.65;;
36061;SDS011;22123;52.412;20.970;2023-10-31T09:04:43;0.93;;;0.80;;
36061;SDS011;22123;52.412;20.970;2023-10-31T09:07:09;0.95;;;0.80;;
36061;SDS011;22123;52.412;20.970;2023-10-31T09:09:35;3.22;;;0.93;;
36061;SDS011;22123;52.412;20.970;2023-10-31T09:12:01;2.78;;;0.88;;
36061;SDS011;22123;52.412;20.970;2023-10-31T09:14:27;0.88;;;0.68;;
36061;SDS011;22123;52.412;20.970;2023-10-31T09:16:53;2.05;;;1.85;;
36061;SDS011;22123;52.412;20.970;2023-10-31T09:19:19;1.45;;;1.08;;
36061;SDS011;22123;52.412;20.970;2023-10-31T09:21:44;0.57;;;0.38;;
36061;SDS011;22123;52.412;20.970;2023-10-31T09:24:10;2.03;;;0.82;;
36061;SDS011;22123;52.412;20.970;2023-10-31T09:26:36;1.48;;;1.08;;
36061;SDS011;22123;52.412;20.970;2023-10-31T09:29:02;2.83;;;1.13;;
36061;SDS011;22123;52.412;20.970;2023-10-31T09:31:28;3.40;;;1.33;;
36061;SDS011;22123;52.412;20.970;2023-10-31T09:33:54;0.50;;;0.50;;
36061;SDS011;22123;52.412;20.970;2023-10-31T09:36:20;0.43;;;0.43;;
36061;SDS011;22123;52.412;20.970;2023-10-31T09:38:46;0.68;;;0.68;;
36061;SDS011;22123;52.412;20.970;2023-10-31T09:41:12;0.90;;;0.60;;
36061;SDS011;22123;52.412;20.970;2023-10-31T09:43:38;0.30;;;0.30;;
36061;SDS011;22123;52.412;20.970;2023-10-31T09:46:04;0.43;;;0.40;;
36061;SDS011;22123;52.412;20.970;2023-10-31T09:48:31;0.30;;;0.30;;
36061;SDS011;22123;52.412;20.970;2023-10-31T09:50:58;0.30;;;0.30;;
36061;SDS011;22123;52.412;20.970;2023-10-31T09:53:24;0.70;;;0.32;;
36061;SDS011;22123;52.412;20.970;2023-10-31T09:55:52;1.83;;;0.77;;
36061;SDS011;22123;52.412;20.970;2023-10-31T09:58:18;1.20;;;0.55;;
36061;SDS011;22123;52.412;20.970;2023-10-31T10:00:44;1.02;;;0.77;;
36061;SDS011;22123;52.412;20.970;2023-10-31T10:03:10;1.25;;;1.02;;
36061;SDS011;22123;52.412;20.970;2023-10-31T10:05:36;2.63;;;0.80;;
36061;SDS011;22123;52.412;20.970;2023-10-31T10:08:06;1.00;;;0.70;;
36061;SDS011;22123;52.412;20.970;2023-10-31T10:10:35;1.73;;;0.90;;
36061;SDS011;22123;52.412;20.970;2023-10-31T10:13:02;2.25;;;0.60;;
36061;SDS011;22123;52.412;20.970;2023-10-31T10:15:28;0.40;;;0.40;;
36061;SDS011;22123;52.412;20.970;2023-10-31T10:20:20;2.75;;;0.57;;
36061;SDS011;22123;52.412;20.970;2023-10-31T10:22:46;1.70;;;0.57;;
36061;SDS011;22123;52.412;20.970;2023-10-31T10:25:13;1.02;;;0.60;;
36061;SDS011;22123;52.412;20.970;2023-10-31T10:27:42;1.52;;;0.50;;
36061;SDS011;22123;52.412;20.970;2023-10-31T10:30:09;0.80;;;0.30;;
36061;SDS011;22123;52.412;20.970;2023-10-31T10:32:35;0.63;;;0.63;;
36061;SDS011;22123;52.412;20.970;2023-10-31T10:35:01;1.02;;;0.85;;
36061;SDS011;22123;52.412;20.970;2023-10-31T10:39:53;2.58;;;0.70;;
36061;SDS011;22123;52.412;20.970;2023-10-31T10:42:19;0.77;;;0.60;;
36061;SDS011;22123;52.412;20.970;2023-10-31T10:45:08;1.15;;;1.05;;
36061;SDS011;22123;52.412;20.970;2023-10-31T10:47:35;1.05;;;0.47;;
36061;SDS011;22123;52.412;20.970;2023-10-31T10:50:02;1.05;;;0.88;;
36061;SDS011;22123;52.412;20.970;2023-10-31T10:54:58;0.65;;;0.32;;
36061;SDS011;22123;52.412;20.970;2023-10-31T10:57:32;2.90;;;0.60;;
36061;SDS011;22123;52.412;20.970;2023-10-31T11:00:03;1.75;;;0.43;;
36061;SDS011;22123;52.412;20.970;2023-10-31T11:02:30;1.27;;;0.45;;
36061;SDS011;22123;52.412;20.970;2023-10-31T11:04:57;2.55;;;0.70;;
36061;SDS011;22123;52.412;20.970;2023-10-31T11:07:25;1.15;;;0.55;;
36061;SDS011;22123;52.412;20.970;2023-10-31T11:09:54;0.85;;;0.70;;
36061;SDS011;22123;52.412;20.970;2023-10-31T11:12:21;0.47;;;0.47;;
36061;SDS011;22123;52.412;20.970;2023-10-31T11:14:47;8.00;;;0.85;;
36061;SDS011;22123;52.412;20.970;2023-10-31T11:17:21;1.25;;;0.40;;
36061;SDS011;22123;52.412;20.970;2023-10-31T11:19:50;1.80;;;0.70;;
36061;SDS011;22123;52.412;20.970;2023-10-31T11:22:18;0.20;;;0.20;;
36061;SDS011;22123;52.412;20.970;2023-10-31T11:27:09;1.50;;;0.68;;
36061;SDS011;22123;52.412;20.970;2023-10-31T11:29:36;0.50;;;0.50;;
36061;SDS011;22123;52.412;20.970;2023-10-31T11:32:02;1.92;;;1.13;;
36061;SDS011;22123;52.412;20.970;2023-10-31T11:34:32;0.60;;;0.57;;
36061;SDS011;22123;52.412;20.970;2023-10-31T11:42:42;0.60;;;0.52;;
36061;SDS011;22123;52.412;20.970;2023-10-31T11:45:12;1.80;;;1.13;;
36061;SDS011;22123;52.412;20.970;2023-10-31T11:50:16;1.48;;;0.98;;
36061;SDS011;22123;52.412;20.970;2023-10-31T11:52:43;0.50;;;0.50;;
36061;SDS011;22123;52.412;20.970;2023-10-31T11:55:10;0.80;;;0.40;;
36061;SDS011;22123;52.412;20.970;2023-10-31T11:57:38;3.53;;;0.70;;
36061;SDS011;22123;52.412;20.970;2023-10-31T12:00:05;1.67;;;0.70;;
36061;SDS011;22123;52.412;20.970;2023-10-31T12:02:31;1.13;;;0.40;;
36061;SDS011;22123;52.412;20.970;2023-10-31T12:07:44;0.45;;;0.40;;
36061;SDS011;22123;52.412;20.970;2023-10-31T12:10:11;0.40;;;0.40;;
36061;SDS011;22123;52.412;20.970;2023-10-31T12:12:37;1.65;;;0.80;;
36061;SDS011;22123;52.412;20.970;2023-10-31T12:17:30;0.65;;;0.30;;
36061;SDS011;22123;52.412;20.970;2023-10-31T12:22:21;1.77;;;1.17;;
36061;SDS011;22123;52.412;20.970;2023-10-31T12:27:13;1.05;;;0.60;;
36061;SDS011;22123;52.412;20.970;2023-10-31T12:32:05;0.52;;;0.45;;
36061;SDS011;22123;52.412;20.970;2023-10-31T12:34:31;0.35;;;0.25;;
36061;SDS011;22123;52.412;20.970;2023-10-31T12:39:23;1.92;;;0.90;;
36061;SDS011;22123;52.412;20.970;2023-10-31T12:41:51;0.43;;;0.43;;
36061;SDS011;22123;52.412;20.970;2023-10-31T12:44:20;0.45;;;0.45;;
36061;SDS011;22123;52.412;20.970;2023-10-31T12:46:49;1.38;;;0.35;;
36061;SDS011;22123;52.412;20.970;2023-10-31T12:54:36;0.55;;;0.55;;
36061;SDS011;22123;52.412;20.970;2023-10-31T12:57:04;0.38;;;0.38;;
36061;SDS011;22123;52.412;20.970;2023-10-31T12:59:34;0.77;;;0.47;;
36061;SDS011;22123;52.412;20.970;2023-10-31T13:02:00;0.50;;;0.50;;
36061;SDS011;22123;52.412;20.970;2023-10-31T13:06:56;0.22;;;0.22;;
36061;SDS011;22123;52.412;20.970;2023-10-31T13:09:23;0.90;;;0.22;;
36061;SDS011;22123;52.412;20.970;2023-10-31T13:11:53;1.38;;;0.50;;
36061;SDS011;22123;52.412;20.970;2023-10-31T13:14:23;1.70;;;0.68;;
36061;SDS011;22123;52.412;20.970;2023-10-31T13:19:15;0.68;;;0.55;;
36061;SDS011;22123;52.412;20.970;2023-10-31T13:21:41;0.57;;;0.57;;
36061;SDS011;22123;52.412;20.970;2023-10-31T13:26:32;0.73;;;0.57;;
36061;SDS011;22123;52.412;20.970;2023-10-31T13:31:24;0.40;;;0.40;;
36061;SDS011;22123;52.412;20.970;2023-10-31T13:33:50;0.50;;;0.50;;
36061;SDS011;22123;52.412;20.970;2023-10-31T13:36:16;1.00;;;0.40;;
36061;SDS011;22123;52.412;20.970;2023-10-31T13:38:42;1.08;;;0.40;;
36061;SDS011;22123;52.412;20.970;2023-10-31T13:41:08;0.32;;;0.32;;
36061;SDS011;22123;52.412;20.970;2023-10-31T13:43:33;0.25;;;0.20;;
36061;SDS011;22123;52.412;20.970;2023-10-31T13:45:59;0.30;;;0.30;;
36061;SDS011;22123;52.412;20.970;2023-10-31T13:48:25;0.43;;;0.43;;
36061;SDS011;22123;52.412;20.970;2023-10-31T13:50:51;0.30;;;0.30;;
36061;SDS011;22123;52.412;20.970;2023-10-31T13:53:17;0.25;;;0.20;;
36061;SDS011;22123;52.412;20.970;2023-10-31T13:55:43;0.65;;;0.52;;
36061;SDS011;22123;52.412;20.970;2023-10-31T13:58:09;1.55;;;0.30;;
36061;SDS011;22123;52.412;20.970;2023-10-31T14:00:34;0.30;;;0.30;;
36061;SDS011;22123;52.412;20.970;2023-10-31T14:03:00;0.30;;;0.25;;
36061;SDS011;22123;52.412;20.970;2023-10-31T14:05:26;0.52;;;0.40;;
36061;SDS011;22123;52.412;20.970;2023-10-31T14:07:52;0.32;;;0.30;;
36061;SDS011;22123;52.412;20.970;2023-10-31T14:10:18;0.30;;;0.30;;
36061;SDS011;22123;52.412;20.970;2023-10-31T14:12:44;0.28;;;0.28;;
36061;SDS011;22123;52.412;20.970;2023-10-31T14:15:10;0.20;;;0.20;;
36061;SDS011;22123;52.412;20.970;2023-10-31T14:17:37;1.55;;;0.20;;
36061;SDS011;22123;52.412;20.970;2023-10-31T14:20:03;0.65;;;0.20;;
36061;SDS011;22123;52.412;20.970;2023-10-31T14:22:29;0.10;;;0.10;;
36061;SDS011;22123;52.412;20.970;2023-10-31T14:24:55;5.40;;;0.40;;
36061;SDS011;22123;52.412;20.970;2023-10-31T14:27:21;1.05;;;0.45;;
36061;SDS011;22123;52.412;20.970;2023-10-31T14:29:47;0.17;;;0.17;;
36061;SDS011;22123;52.412;20.970;2023-10-31T14:32:13;0.38;;;0.28;;
36061;SDS011;22123;52.412;20.970;2023-10-31T14:34:38;0.38;;;0.22;;
36061;SDS011;22123;52.412;20.970;2023-10-31T14:37:04;0.20;;;0.20;;
36061;SDS011;22123;52.412;20.970;2023-10-31T14:39:30;0.38;;;0.22;;
36061;SDS011;22123;52.412;20.970;2023-10-31T14:41:56;0.25;;;0.25;;
36061;SDS011;22123;52.412;20.970;2023-10-31T14:44:22;0.08;;;0.08;;
36061;SDS011;22123;52.412;20.970;2023-10-31T14:46:48;0.30;;;0.30;;
36061;SDS011;22123;52.412;20.970;2023-10-31T14:49:14;0.45;;;0.45;;
36061;SDS011;22123;52.412;20.970;2023-10-31T14:54:05;0.20;;;0.17;;
36061;SDS011;22123;52.412;20.970;2023-10-31T14:58:57;0.20;;;0.20;;
36061;SDS011;22123;52.412;20.970;2023-10-31T15:03:48;0.30;;;0.30;;
36061;SDS011;22123;52.412;20.970;2023-10-31T15:08:40;2.03;;;0.30;;
36061;SDS011;22123;52.412;20.970;2023-10-31T15:13:31;0.30;;;0.15;;
36061;SDS011;22123;52.412;20.970;2023-10-31T15:15:58;0.60;;;0.30;;
36061;SDS011;22123;52.412;20.970;2023-10-31T15:18:24;0.30;;;0.30;;
36061;SDS011;22123;52.412;20.970;2023-10-31T15:20:50;0.70;;;0.20;;
36061;SDS011;22123;52.412;20.970;2023-10-31T15:23:18;1.25;;;0.30;;
36061;SDS011;22123;52.412;20.970;2023-10-31T15:25:44;0.10;;;0.10;;
36061;SDS011;22123;52.412;20.970;2023-10-31T15:28:10;0.13;;;0.10;;
36061;SDS011;22123;52.412;20.970;2023-10-31T15:30:36;1.75;;;0.47;;
36061;SDS011;22123;52.412;20.970;2023-10-31T15:33:02;0.90;;;0.50;;
36061;SDS011;22123;52.412;20.970;2023-10-31T15:35:28;0.43;;;0.40;;
36061;SDS011;22123;52.412;20.970;2023-10-31T15:37:53;1.38;;;0.38;;
36061;SDS011;22123;52.412;20.970;2023-10-31T15:40:19;2.58;;;0.80;;
36061;SDS011;22123;52.412;20.970;2023-10-31T15:42:45;1.98;;;0.65;;
36061;SDS011;22123;52.412;20.970;2023-10-31T15:45:11;0.30;;;0.30;;